sensor_id;sensor_type;location;lat;lon;timestamp;temperature;humidity
8792;DHT22;4432;50.890;4.744;2022-07-23T00:01:24;15.10;99.90
8792;DHT22;4432;50.890;4.744;2022-07-23T00:03:50;15.10;99.90
8792;DHT22;4432;50.890;4.744;2022-07-23T00:06:17;15.10;99.90
8792;DHT22;4432;50.890;4.744;2022-07-23T00:08:43;15.10;99.90
8792;DHT22;4432;50.890;4.744;2022-07-23T00:11:09;15.00;99.90
8792;DHT22;4432;50.890;4.744;2022-07-23T00:13:35;15.00;99.90
8792;DHT22;4432;50.890;4.744;2022-07-23T00:16:00;14.90;99.90
8792;DHT22;4432;50.890;4.744;2022-07-23T00:18:27;14.80;99.90
8792;DHT22;4432;50.890;4.744;2022-07-23T00:20:52;14.80;99.90
8792;DHT22;4432;50.890;4.744;2022-07-23T00:23:19;14.80;99.90
8792;DHT22;4432;50.890;4.744;2022-07-23T00:25:44;14.80;99.90
8792;DHT22;4432;50.890;4.744;2022-07-23T00:28:11;14.80;99.90
8792;DHT22;4432;50.890;4.744;2022-07-23T00:30:37;14.80;99.90
8792;DHT22;4432;50.890;4.744;2022-07-23T00:33:07;14.80;99.90
8792;DHT22;4432;50.890;4.744;2022-07-23T00:35:35;14.80;99.90
8792;DHT22;4432;50.890;4.744;2022-07-23T00:38:02;14.70;99.90
8792;DHT22;4432;50.890;4.744;2022-07-23T00:40:29;14.70;99.90
8792;DHT22;4432;50.890;4.744;2022-07-23T00:42:55;14.60;99.90
8792;DHT22;4432;50.890;4.744;2022-07-23T00:45:21;14.70;99.90
8792;DHT22;4432;50.890;4.744;2022-07-23T00:47:47;14.70;99.90
8792;DHT22;4432;50.890;4.744;2022-07-23T00:50:13;14.60;99.90
8792;DHT22;4432;50.890;4.744;2022-07-23T00:52:40;14.50;99.90
8792;DHT22;4432;50.890;4.744;2022-07-23T00:55:08;14.40;99.90
8792;DHT22;4432;50.890;4.744;2022-07-23T00:57:35;14.40;99.90
8792;DHT22;4432;50.890;4.744;2022-07-23T01:00:01;14.40;99.90
8792;DHT22;4432;50.890;4.744;2022-07-23T01:02:28;14.40;99.90
8792;DHT22;4432;50.890;4.744;2022-07-23T01:04:54;14.40;99.90
8792;DHT22;4432;50.890;4.744;2022-07-23T01:07:20;14.40;99.90
8792;DHT22;4432;50.890;4.744;2022-07-23T01:09:46;14.40;99.90
8792;DHT22;4432;50.890;4.744;2022-07-23T01:12:12;14.30;99.90
8792;DHT22;4432;50.890;4.744;2022-07-23T01:14:38;14.30;99.90
8792;DHT22;4432;50.890;4.744;2022-07-23T01:17:04;14.30;99.90
8792;DHT22;4432;50.890;4.744;2022-07-23T01:19:30;14.20;99.90
8792;DHT22;4432;50.890;4.744;2022-07-23T01:21:58;14.10;99.90
8792;DHT22;4432;50.890;4.744;2022-07-23T01:24:25;14.10;99.90
8792;DHT22;4432;50.890;4.744;2022-07-23T01:26:51;14.10;99.90
8792;DHT22;4432;50.890;4.744;2022-07-23T01:29:17;14.10;99.90
8792;DHT22;4432;50.890;4.744;2022-07-23T01:31:43;14.20;99.90
8792;DHT22;4432;50.890;4.744;2022-07-23T01:34:09;14.20;99.90
8792;DHT22;4432;50.890;4.744;2022-07-23T01:36:36;14.20;99.90
8792;DHT22;4432;50.890;4.744;2022-07-23T01:39:04;14.20;99.90
8792;DHT22;4432;50.890;4.744;2022-07-23T01:41:30;14.10;99.90
8792;DHT22;4432;50.890;4.744;2022-07-23T01:43:56;14.10;99.90
8792;DHT22;4432;50.890;4.744;2022-07-23T01:46:22;14.10;99.90
8792;DHT22;4432;50.890;4.744;2022-07-23T01:48:48;14.10;99.90
8792;DHT22;4432;50.890;4.744;2022-07-23T01:51:14;14.10;99.90
8792;DHT22;4432;50.890;4.744;2022-07-23T01:53:39;14.00;99.90
8792;DHT22;4432;50.890;4.744;2022-07-23T01:56:05;14.10;99.90
8792;DHT22;4432;50.890;4.744;2022-07-23T01:58:32;14.10;99.90
8792;DHT22;4432;50.890;4.744;2022-07-23T02:00:58;14.10;99.90
8792;DHT22;4432;50.890;4.744;2022-07-23T02:03:24;14.10;99.90
8792;DHT22;4432;50.890;4.744;2022-07-23T02:05:50;14.00;99.90
8792;DHT22;4432;50.890;4.744;2022-07-23T02:08:16;14.00;99.90
8792;DHT22;4432;50.890;4.744;2022-07-23T02:10:42;13.90;99.90
8792;DHT22;4432;50.890;4.744;2022-07-23T02:13:08;13.90;99.90
8792;DHT22;4432;50.890;4.744;2022-07-23T02:15:34;13.90;99.90
8792;DHT22;4432;50.890;4.744;2022-07-23T02:18:00;13.90;99.90
8792;DHT22;4432;50.890;4.744;2022-07-23T02:20:25;13.90;99.90
8792;DHT22;4432;50.890;4.744;2022-07-23T02:22:51;13.90;99.90
8792;DHT22;4432;50.890;4.744;2022-07-23T02:25:17;13.80;99.90
8792;DHT22;4432;50.890;4.744;2022-07-23T02:27:43;13.80;99.90
8792;DHT22;4432;50.890;4.744;2022-07-23T02:30:09;13.80;99.90
8792;DHT22;4432;50.890;4.744;2022-07-23T02:32:35;13.70;99.90
8792;DHT22;4432;50.890;4.744;2022-07-23T02:35:02;13.70;99.90
8792;DHT22;4432;50.890;4.744;2022-07-23T02:37:28;13.70;99.90
8792;DHT22;4432;50.890;4.744;2022-07-23T02:39:54;13.70;99.90
8792;DHT22;4432;50.890;4.744;2022-07-23T02:42:19;13.60;99.90
8792;DHT22;4432;50.890;4.744;2022-07-23T02:44:45;13.70;99.90
8792;DHT22;4432;50.890;4.744;2022-07-23T02:47:11;13.70;99.90
8792;DHT22;4432;50.890;4.744;2022-07-23T02:49:36;13.70;99.90
8792;DHT22;4432;50.890;4.744;2022-07-23T02:52:02;13.60;99.90
8792;DHT22;4432;50.890;4.744;2022-07-23T02:54:28;13.60;99.90
8792;DHT22;4432;50.890;4.744;2022-07-23T02:56:54;13.60;99.90
8792;DHT22;4432;50.890;4.744;2022-07-23T02:59:20;13.50;99.90
8792;DHT22;4432;50.890;4.744;2022-07-23T03:01:45;13.50;99.90
8792;DHT22;4432;50.890;4.744;2022-07-23T03:04:12;13.40;99.90
8792;DHT22;4432;50.890;4.744;2022-07-23T03:06:37;13.40;99.90
8792;DHT22;4432;50.890;4.744;2022-07-23T03:09:04;13.40;99.90
8792;DHT22;4432;50.890;4.744;2022-07-23T03:11:30;13.40;99.90
8792;DHT22;4432;50.890;4.744;2022-07-23T03:13:56;13.40;99.90
8792;DHT22;4432;50.890;4.744;2022-07-23T03:16:22;13.40;99.90
8792;DHT22;4432;50.890;4.744;2022-07-23T03:18:47;13.40;99.90
8792;DHT22;4432;50.890;4.744;2022-07-23T03:21:13;13.40;99.90
8792;DHT22;4432;50.890;4.744;2022-07-23T03:23:39;13.30;99.90
8792;DHT22;4432;50.890;4.744;2022-07-23T03:26:05;13.30;99.90
8792;DHT22;4432;50.890;4.744;2022-07-23T03:28:31;13.30;99.90
8792;DHT22;4432;50.890;4.744;2022-07-23T03:30:57;13.30;99.90
8792;DHT22;4432;50.890;4.744;2022-07-23T03:33:23;13.30;99.90
8792;DHT22;4432;50.890;4.744;2022-07-23T03:35:49;13.30;99.90
8792;DHT22;4432;50.890;4.744;2022-07-23T03:38:15;13.30;99.90
8792;DHT22;4432;50.890;4.744;2022-07-23T03:40:41;13.30;99.90
8792;DHT22;4432;50.890;4.744;2022-07-23T03:43:07;13.20;99.90
8792;DHT22;4432;50.890;4.744;2022-07-23T03:45:33;13.20;99.90
8792;DHT22;4432;50.890;4.744;2022-07-23T03:47:59;13.20;99.90
8792;DHT22;4432;50.890;4.744;2022-07-23T03:50:25;13.20;99.90
8792;DHT22;4432;50.890;4.744;2022-07-23T03:52:51;13.10;99.90
8792;DHT22;4432;50.890;4.744;2022-07-23T03:55:17;13.10;99.90
8792;DHT22;4432;50.890;4.744;2022-07-23T03:57:43;13.10;99.90
8792;DHT22;4432;50.890;4.744;2022-07-23T04:00:10;13.10;99.90
8792;DHT22;4432;50.890;4.744;2022-07-23T04:02:38;13.10;99.90
8792;DHT22;4432;50.890;4.744;2022-07-23T04:05:04;13.10;99.90
8792;DHT22;4432;50.890;4.744;2022-07-23T04:07:30;13.10;99.90
8792;DHT22;4432;50.890;4.744;2022-07-23T04:09:56;13.10;99.90
8792;DHT22;4432;50.890;4.744;2022-07-23T04:12:22;13.10;99.90
8792;DHT22;4432;50.890;4.744;2022-07-23T04:14:48;13.20;99.90
8792;DHT22;4432;50.890;4.744;2022-07-23T04:17:14;13.20;99.90
8792;DHT22;4432;50.890;4.744;2022-07-23T04:19:39;13.20;99.90
8792;DHT22;4432;50.890;4.744;2022-07-23T04:22:11;13.30;99.90
8792;DHT22;4432;50.890;4.744;2022-07-23T04:24:37;13.30;99.90
8792;DHT22;4432;50.890;4.744;2022-07-23T04:27:03;13.40;99.90
8792;DHT22;4432;50.890;4.744;2022-07-23T04:29:29;13.40;99.90
8792;DHT22;4432;50.890;4.744;2022-07-23T04:31:55;13.50;99.90
8792;DHT22;4432;50.890;4.744;2022-07-23T04:34:21;13.50;99.90
8792;DHT22;4432;50.890;4.744;2022-07-23T04:36:47;13.40;99.90
8792;DHT22;4432;50.890;4.744;2022-07-23T04:39:13;13.40;99.90
8792;DHT22;4432;50.890;4.744;2022-07-23T04:41:39;13.50;99.90
8792;DHT22;4432;50.890;4.744;2022-07-23T04:44:05;13.50;99.90
8792;DHT22;4432;50.890;4.744;2022-07-23T04:46:31;13.60;99.90
8792;DHT22;4432;50.890;4.744;2022-07-23T04:48:57;13.70;99.90
8792;DHT22;4432;50.890;4.744;2022-07-23T04:51:23;13.80;99.90
8792;DHT22;4432;50.890;4.744;2022-07-23T04:53:48;13.90;99.90
8792;DHT22;4432;50.890;4.744;2022-07-23T04:56:15;14.00;99.90
8792;DHT22;4432;50.890;4.744;2022-07-23T04:58:40;14.20;99.90
8792;DHT22;4432;50.890;4.744;2022-07-23T05:01:06;14.40;99.90
8792;DHT22;4432;50.890;4.744;2022-07-23T05:03:32;14.50;99.90
8792;DHT22;4432;50.890;4.744;2022-07-23T05:05:58;14.80;99.90
8792;DHT22;4432;50.890;4.744;2022-07-23T05:08:24;15.00;99.90
8792;DHT22;4432;50.890;4.744;2022-07-23T05:10:49;15.20;99.90
8792;DHT22;4432;50.890;4.744;2022-07-23T05:13:16;15.30;99.90
8792;DHT22;4432;50.890;4.744;2022-07-23T05:15:42;15.40;99.90
8792;DHT22;4432;50.890;4.744;2022-07-23T05:18:08;15.50;99.90
8792;DHT22;4432;50.890;4.744;2022-07-23T05:20:34;15.50;99.90
8792;DHT22;4432;50.890;4.744;2022-07-23T05:22:59;15.50;99.90
8792;DHT22;4432;50.890;4.744;2022-07-23T05:25:25;15.40;99.90
8792;DHT22;4432;50.890;4.744;2022-07-23T05:27:51;15.50;99.90
8792;DHT22;4432;50.890;4.744;2022-07-23T05:30:17;15.50;99.90
8792;DHT22;4432;50.890;4.744;2022-07-23T05:32:43;15.60;99.90
8792;DHT22;4432;50.890;4.744;2022-07-23T05:35:08;15.60;99.90
8792;DHT22;4432;50.890;4.744;2022-07-23T05:37:34;15.60;99.90
8792;DHT22;4432;50.890;4.744;2022-07-23T05:40:09;15.80;99.90
8792;DHT22;4432;50.890;4.744;2022-07-23T05:42:36;16.00;99.90
8792;DHT22;4432;50.890;4.744;2022-07-23T05:45:02;16.00;99.90
8792;DHT22;4432;50.890;4.744;2022-07-23T05:47:28;16.00;99.90
8792;DHT22;4432;50.890;4.744;2022-07-23T05:49:54;16.10;99.90
8792;DHT22;4432;50.890;4.744;2022-07-23T05:52:20;16.30;99.90
8792;DHT22;4432;50.890;4.744;2022-07-23T05:54:45;16.40;99.90
8792;DHT22;4432;50.890;4.744;2022-07-23T05:57:11;16.70;99.90
8792;DHT22;4432;50.890;4.744;2022-07-23T05:59:37;16.80;99.90
8792;DHT22;4432;50.890;4.744;2022-07-23T06:02:02;16.90;99.90
8792;DHT22;4432;50.890;4.744;2022-07-23T06:04:28;16.90;99.90
8792;DHT22;4432;50.890;4.744;2022-07-23T06:06:54;17.00;99.90
8792;DHT22;4432;50.890;4.744;2022-07-23T06:09:20;17.10;99.90
8792;DHT22;4432;50.890;4.744;2022-07-23T06:11:45;17.20;99.90
8792;DHT22;4432;50.890;4.744;2022-07-23T06:14:11;17.30;99.90
8792;DHT22;4432;50.890;4.744;2022-07-23T06:16:37;17.50;99.90
8792;DHT22;4432;50.890;4.744;2022-07-23T06:19:02;17.50;99.90
8792;DHT22;4432;50.890;4.744;2022-07-23T06:21:28;17.60;99.90
8792;DHT22;4432;50.890;4.744;2022-07-23T06:23:54;17.70;99.90
8792;DHT22;4432;50.890;4.744;2022-07-23T06:26:19;17.80;99.90
8792;DHT22;4432;50.890;4.744;2022-07-23T06:28:45;17.90;99.90
8792;DHT22;4432;50.890;4.744;2022-07-23T06:31:11;18.10;99.90
8792;DHT22;4432;50.890;4.744;2022-07-23T06:33:36;18.20;99.90
8792;DHT22;4432;50.890;4.744;2022-07-23T06:36:02;18.20;99.90
8792;DHT22;4432;50.890;4.744;2022-07-23T06:38:28;18.30;99.90
8792;DHT22;4432;50.890;4.744;2022-07-23T06:40:54;18.50;99.90
8792;DHT22;4432;50.890;4.744;2022-07-23T06:43:19;18.50;99.90
8792;DHT22;4432;50.890;4.744;2022-07-23T06:45:45;18.50;99.90
8792;DHT22;4432;50.890;4.744;2022-07-23T06:48:11;18.50;99.90
8792;DHT22;4432;50.890;4.744;2022-07-23T06:50:36;18.50;99.90
8792;DHT22;4432;50.890;4.744;2022-07-23T06:53:02;18.60;99.90
8792;DHT22;4432;50.890;4.744;2022-07-23T06:55:28;18.70;99.90
8792;DHT22;4432;50.890;4.744;2022-07-23T06:57:54;18.60;99.90
8792;DHT22;4432;50.890;4.744;2022-07-23T07:00:19;18.50;99.90
8792;DHT22;4432;50.890;4.744;2022-07-23T07:02:45;18.70;99.90
8792;DHT22;4432;50.890;4.744;2022-07-23T07:05:11;18.70;99.90
8792;DHT22;4432;50.890;4.744;2022-07-23T07:07:37;18.80;99.90
8792;DHT22;4432;50.890;4.744;2022-07-23T07:10:03;18.90;99.90
8792;DHT22;4432;50.890;4.744;2022-07-23T07:12:29;19.00;99.90
8792;DHT22;4432;50.890;4.744;2022-07-23T07:14:55;18.90;99.90
8792;DHT22;4432;50.890;4.744;2022-07-23T07:17:21;18.90;99.90
8792;DHT22;4432;50.890;4.744;2022-07-23T07:19:46;19.00;99.90
8792;DHT22;4432;50.890;4.744;2022-07-23T07:22:12;19.20;99.90
8792;DHT22;4432;50.890;4.744;2022-07-23T07:24:37;19.20;99.90
8792;DHT22;4432;50.890;4.744;2022-07-23T07:27:03;19.20;99.90
8792;DHT22;4432;50.890;4.744;2022-07-23T07:29:29;19.20;99.90
8792;DHT22;4432;50.890;4.744;2022-07-23T07:31:55;19.30;99.90
8792;DHT22;4432;50.890;4.744;2022-07-23T07:34:20;19.20;99.90
8792;DHT22;4432;50.890;4.744;2022-07-23T07:36:46;19.30;99.90
8792;DHT22;4432;50.890;4.744;2022-07-23T07:39:12;19.50;99.90
8792;DHT22;4432;50.890;4.744;2022-07-23T07:41:38;19.50;99.90
8792;DHT22;4432;50.890;4.744;2022-07-23T07:44:03;19.50;99.90
8792;DHT22;4432;50.890;4.744;2022-07-23T07:46:29;19.40;99.90
8792;DHT22;4432;50.890;4.744;2022-07-23T07:48:56;19.50;99.90
8792;DHT22;4432;50.890;4.744;2022-07-23T07:51:21;19.50;99.90
8792;DHT22;4432;50.890;4.744;2022-07-23T07:53:47;19.70;99.90
8792;DHT22;4432;50.890;4.744;2022-07-23T07:56:13;19.80;99.90
8792;DHT22;4432;50.890;4.744;2022-07-23T07:58:39;19.90;99.90
8792;DHT22;4432;50.890;4.744;2022-07-23T08:01:04;20.00;99.90
8792;DHT22;4432;50.890;4.744;2022-07-23T08:03:30;20.10;99.90
8792;DHT22;4432;50.890;4.744;2022-07-23T08:05:56;20.20;99.90
8792;DHT22;4432;50.890;4.744;2022-07-23T08:08:22;20.30;99.90
8792;DHT22;4432;50.890;4.744;2022-07-23T08:10:47;20.30;99.90
8792;DHT22;4432;50.890;4.744;2022-07-23T08:13:15;20.50;99.90
8792;DHT22;4432;50.890;4.744;2022-07-23T08:15:42;20.50;99.90
8792;DHT22;4432;50.890;4.744;2022-07-23T08:18:07;20.50;99.90
8792;DHT22;4432;50.890;4.744;2022-07-23T08:20:33;20.50;99.90
8792;DHT22;4432;50.890;4.744;2022-07-23T08:23:02;20.60;99.90
8792;DHT22;4432;50.890;4.744;2022-07-23T08:25:40;20.70;99.90
8792;DHT22;4432;50.890;4.744;2022-07-23T08:28:08;20.90;99.90
8792;DHT22;4432;50.890;4.744;2022-07-23T08:30:36;21.00;99.90
8792;DHT22;4432;50.890;4.744;2022-07-23T08:33:07;21.20;99.90
8792;DHT22;4432;50.890;4.744;2022-07-23T08:35:38;21.20;99.90
8792;DHT22;4432;50.890;4.744;2022-07-23T08:38:06;21.20;99.90
8792;DHT22;4432;50.890;4.744;2022-07-23T08:40:36;21.20;99.90
8792;DHT22;4432;50.890;4.744;2022-07-23T08:43:10;21.20;99.90
8792;DHT22;4432;50.890;4.744;2022-07-23T08:45:38;21.40;99.90
8792;DHT22;4432;50.890;4.744;2022-07-23T08:48:15;21.50;99.90
8792;DHT22;4432;50.890;4.744;2022-07-23T08:50:47;21.70;99.90
8792;DHT22;4432;50.890;4.744;2022-07-23T08:53:15;21.50;99.90
8792;DHT22;4432;50.890;4.744;2022-07-23T08:55:44;21.60;99.90
8792;DHT22;4432;50.890;4.744;2022-07-23T08:58:10;21.80;99.90
8792;DHT22;4432;50.890;4.744;2022-07-23T09:00:36;21.60;99.90
8792;DHT22;4432;50.890;4.744;2022-07-23T09:03:02;22.00;99.90
8792;DHT22;4432;50.890;4.744;2022-07-23T09:05:28;22.70;99.90
8792;DHT22;4432;50.890;4.744;2022-07-23T09:08:08;22.60;99.90
8792;DHT22;4432;50.890;4.744;2022-07-23T09:18:37;24.90;99.90
8792;DHT22;4432;50.890;4.744;2022-07-23T09:23:50;25.50;99.90
8792;DHT22;4432;50.890;4.744;2022-07-23T09:26:40;26.40;99.90
8792;DHT22;4432;50.890;4.744;2022-07-23T09:34:16;26.60;99.20
8792;DHT22;4432;50.890;4.744;2022-07-23T09:36:43;26.30;99.90
8792;DHT22;4432;50.890;4.744;2022-07-23T09:39:11;26.30;99.90
8792;DHT22;4432;50.890;4.744;2022-07-23T09:41:42;25.90;99.90
8792;DHT22;4432;50.890;4.744;2022-07-23T09:44:11;26.00;99.90
8792;DHT22;4432;50.890;4.744;2022-07-23T09:46:38;25.70;99.90
8792;DHT22;4432;50.890;4.744;2022-07-23T09:49:17;25.80;99.90
8792;DHT22;4432;50.890;4.744;2022-07-23T09:51:53;25.50;99.90
8792;DHT22;4432;50.890;4.744;2022-07-23T09:56:48;26.70;99.90
8792;DHT22;4432;50.890;4.744;2022-07-23T09:59:16;27.00;98.50
8792;DHT22;4432;50.890;4.744;2022-07-23T10:01:44;26.30;98.80
8792;DHT22;4432;50.890;4.744;2022-07-23T10:04:11;26.60;99.80
8792;DHT22;4432;50.890;4.744;2022-07-23T10:06:39;26.80;95.80
8792;DHT22;4432;50.890;4.744;2022-07-23T10:09:07;26.40;96.40
8792;DHT22;4432;50.890;4.744;2022-07-23T10:11:34;25.60;99.90
8792;DHT22;4432;50.890;4.744;2022-07-23T10:14:02;26.50;99.90
8792;DHT22;4432;50.890;4.744;2022-07-23T10:16:29;27.20;99.90
8792;DHT22;4432;50.890;4.744;2022-07-23T10:18:56;26.90;96.00
8792;DHT22;4432;50.890;4.744;2022-07-23T10:21:45;27.00;94.60
8792;DHT22;4432;50.890;4.744;2022-07-23T10:32:21;26.40;93.40
8792;DHT22;4432;50.890;4.744;2022-07-23T10:35:13;26.60;97.20
8792;DHT22;4432;50.890;4.744;2022-07-23T10:37:47;26.70;91.90
8792;DHT22;4432;50.890;4.744;2022-07-23T10:40:18;25.80;94.00
8792;DHT22;4432;50.890;4.744;2022-07-23T10:42:45;25.80;93.40
8792;DHT22;4432;50.890;4.744;2022-07-23T10:45:34;25.90;91.60
8792;DHT22;4432;50.890;4.744;2022-07-23T10:48:17;25.70;93.90
8792;DHT22;4432;50.890;4.744;2022-07-23T10:50:44;25.90;91.90
8792;DHT22;4432;50.890;4.744;2022-07-23T10:56:15;25.90;90.60
8792;DHT22;4432;50.890;4.744;2022-07-23T10:58:49;25.90;90.70
8792;DHT22;4432;50.890;4.744;2022-07-23T11:01:34;25.80;90.50
8792;DHT22;4432;50.890;4.744;2022-07-23T11:04:00;25.80;92.70
8792;DHT22;4432;50.890;4.744;2022-07-23T11:09:31;25.40;89.70
8792;DHT22;4432;50.890;4.744;2022-07-23T11:15:01;25.80;86.60
8792;DHT22;4432;50.890;4.744;2022-07-23T11:17:28;25.40;89.30
8792;DHT22;4432;50.890;4.744;2022-07-23T11:22:39;25.60;90.70
8792;DHT22;4432;50.890;4.744;2022-07-23T11:25:06;25.70;91.30
8792;DHT22;4432;50.890;4.744;2022-07-23T11:27:41;25.70;90.00
8792;DHT22;4432;50.890;4.744;2022-07-23T11:30:09;25.70;92.20
8792;DHT22;4432;50.890;4.744;2022-07-23T11:32:37;26.10;91.10
8792;DHT22;4432;50.890;4.744;2022-07-23T11:35:27;26.00;88.10
8792;DHT22;4432;50.890;4.744;2022-07-23T11:38:02;26.00;87.90
8792;DHT22;4432;50.890;4.744;2022-07-23T11:40:28;25.90;88.00
8792;DHT22;4432;50.890;4.744;2022-07-23T11:42:59;26.10;92.10
8792;DHT22;4432;50.890;4.744;2022-07-23T11:45:35;26.10;93.40
8792;DHT22;4432;50.890;4.744;2022-07-23T11:48:03;26.60;97.30
8792;DHT22;4432;50.890;4.744;2022-07-23T11:50:29;27.10;92.00
8792;DHT22;4432;50.890;4.744;2022-07-23T11:52:55;27.10;86.10
8792;DHT22;4432;50.890;4.744;2022-07-23T11:55:21;27.00;90.10
8792;DHT22;4432;50.890;4.744;2022-07-23T11:57:47;27.00;87.50
8792;DHT22;4432;50.890;4.744;2022-07-23T12:00:16;26.90;89.60
8792;DHT22;4432;50.890;4.744;2022-07-23T12:02:50;27.10;85.20
8792;DHT22;4432;50.890;4.744;2022-07-23T12:05:22;27.00;84.00
8792;DHT22;4432;50.890;4.744;2022-07-23T12:07:50;26.90;86.90
8792;DHT22;4432;50.890;4.744;2022-07-23T12:12:52;26.80;81.10
8792;DHT22;4432;50.890;4.744;2022-07-23T12:15:21;26.50;82.70
8792;DHT22;4432;50.890;4.744;2022-07-23T12:17:48;26.60;84.30
8792;DHT22;4432;50.890;4.744;2022-07-23T12:20:24;26.80;82.30
8792;DHT22;4432;50.890;4.744;2022-07-23T12:22:53;26.80;82.00
8792;DHT22;4432;50.890;4.744;2022-07-23T12:25:23;26.90;80.80
8792;DHT22;4432;50.890;4.744;2022-07-23T12:30:44;27.00;82.10
8792;DHT22;4432;50.890;4.744;2022-07-23T12:33:13;27.20;86.10
8792;DHT22;4432;50.890;4.744;2022-07-23T12:35:45;27.40;81.10
8792;DHT22;4432;50.890;4.744;2022-07-23T12:38:19;27.50;77.30
8792;DHT22;4432;50.890;4.744;2022-07-23T12:40:52;27.50;79.40
8792;DHT22;4432;50.890;4.744;2022-07-23T12:43:28;27.60;84.00
8792;DHT22;4432;50.890;4.744;2022-07-23T12:46:05;27.50;83.30
8792;DHT22;4432;50.890;4.744;2022-07-23T12:48:36;27.90;89.80
8792;DHT22;4432;50.890;4.744;2022-07-23T12:56:16;28.20;74.30
8792;DHT22;4432;50.890;4.744;2022-07-23T12:58:45;28.10;70.80
8792;DHT22;4432;50.890;4.744;2022-07-23T13:01:41;28.00;71.50
8792;DHT22;4432;50.890;4.744;2022-07-23T13:04:19;28.00;70.80
8792;DHT22;4432;50.890;4.744;2022-07-23T13:06:48;27.60;70.90
8792;DHT22;4432;50.890;4.744;2022-07-23T13:09:23;27.50;73.30
8792;DHT22;4432;50.890;4.744;2022-07-23T13:11:51;27.70;72.70
8792;DHT22;4432;50.890;4.744;2022-07-23T13:14:18;27.80;75.00
8792;DHT22;4432;50.890;4.744;2022-07-23T13:16:45;27.90;69.40
8792;DHT22;4432;50.890;4.744;2022-07-23T13:19:11;27.80;69.90
8792;DHT22;4432;50.890;4.744;2022-07-23T13:21:37;27.90;68.20
8792;DHT22;4432;50.890;4.744;2022-07-23T13:24:03;27.80;69.10
8792;DHT22;4432;50.890;4.744;2022-07-23T13:26:29;27.40;66.60
8792;DHT22;4432;50.890;4.744;2022-07-23T13:28:54;27.20;69.00
8792;DHT22;4432;50.890;4.744;2022-07-23T13:31:20;27.20;70.30
8792;DHT22;4432;50.890;4.744;2022-07-23T13:33:46;27.30;71.90
8792;DHT22;4432;50.890;4.744;2022-07-23T13:36:12;27.20;74.10
8792;DHT22;4432;50.890;4.744;2022-07-23T13:38:39;27.20;72.00
8792;DHT22;4432;50.890;4.744;2022-07-23T13:41:05;27.20;70.50
8792;DHT22;4432;50.890;4.744;2022-07-23T13:43:31;27.00;73.10
8792;DHT22;4432;50.890;4.744;2022-07-23T13:45:58;27.00;72.00
8792;DHT22;4432;50.890;4.744;2022-07-23T13:48:24;27.10;72.00
8792;DHT22;4432;50.890;4.744;2022-07-23T13:50:51;27.00;71.70
8792;DHT22;4432;50.890;4.744;2022-07-23T13:53:20;27.00;70.70
8792;DHT22;4432;50.890;4.744;2022-07-23T13:55:47;27.00;69.90
8792;DHT22;4432;50.890;4.744;2022-07-23T13:58:13;27.00;71.20
8792;DHT22;4432;50.890;4.744;2022-07-23T14:00:43;26.90;70.00
8792;DHT22;4432;50.890;4.744;2022-07-23T14:03:09;26.90;71.90
8792;DHT22;4432;50.890;4.744;2022-07-23T14:05:35;26.90;71.90
8792;DHT22;4432;50.890;4.744;2022-07-23T14:08:02;26.80;73.00
8792;DHT22;4432;50.890;4.744;2022-07-23T14:10:28;26.90;71.70
8792;DHT22;4432;50.890;4.744;2022-07-23T14:12:54;26.80;71.10
8792;DHT22;4432;50.890;4.744;2022-07-23T14:15:21;26.80;72.30
8792;DHT22;4432;50.890;4.744;2022-07-23T14:17:47;26.90;75.20
8792;DHT22;4432;50.890;4.744;2022-07-23T14:20:13;27.00;74.10
8792;DHT22;4432;50.890;4.744;2022-07-23T14:22:39;27.20;73.00
8792;DHT22;4432;50.890;4.744;2022-07-23T14:25:06;27.40;73.30
8792;DHT22;4432;50.890;4.744;2022-07-23T14:27:33;27.20;69.70
8792;DHT22;4432;50.890;4.744;2022-07-23T14:29:58;27.10;74.00
8792;DHT22;4432;50.890;4.744;2022-07-23T14:32:24;27.10;72.70
8792;DHT22;4432;50.890;4.744;2022-07-23T14:34:51;26.90;71.70
8792;DHT22;4432;50.890;4.744;2022-07-23T14:37:18;27.00;72.70
8792;DHT22;4432;50.890;4.744;2022-07-23T14:39:45;27.20;74.40
8792;DHT22;4432;50.890;4.744;2022-07-23T14:42:11;27.30;73.60
8792;DHT22;4432;50.890;4.744;2022-07-23T14:44:37;27.20;70.50
8792;DHT22;4432;50.890;4.744;2022-07-23T14:47:04;27.00;72.70
8792;DHT22;4432;50.890;4.744;2022-07-23T14:49:31;26.90;73.10
8792;DHT22;4432;50.890;4.744;2022-07-23T14:51:57;26.90;72.40
8792;DHT22;4432;50.890;4.744;2022-07-23T14:54:24;26.70;71.70
8792;DHT22;4432;50.890;4.744;2022-07-23T14:56:52;26.60;72.70
8792;DHT22;4432;50.890;4.744;2022-07-23T14:59:18;26.60;72.00
8792;DHT22;4432;50.890;4.744;2022-07-23T15:01:43;26.80;72.60
8792;DHT22;4432;50.890;4.744;2022-07-23T15:04:09;27.10;74.30
8792;DHT22;4432;50.890;4.744;2022-07-23T15:06:35;27.30;73.30
8792;DHT22;4432;50.890;4.744;2022-07-23T15:09:01;27.70;75.50
8792;DHT22;4432;50.890;4.744;2022-07-23T15:11:27;27.80;72.00
8792;DHT22;4432;50.890;4.744;2022-07-23T15:13:55;28.00;67.80
8792;DHT22;4432;50.890;4.744;2022-07-23T15:16:20;28.10;71.10
8792;DHT22;4432;50.890;4.744;2022-07-23T15:18:46;28.10;69.20
8792;DHT22;4432;50.890;4.744;2022-07-23T15:21:12;28.10;66.50
8792;DHT22;4432;50.890;4.744;2022-07-23T15:23:38;28.00;64.50
8792;DHT22;4432;50.890;4.744;2022-07-23T15:26:05;28.00;65.40
8792;DHT22;4432;50.890;4.744;2022-07-23T15:28:31;28.10;66.40
8792;DHT22;4432;50.890;4.744;2022-07-23T15:30:57;28.20;67.70
8792;DHT22;4432;50.890;4.744;2022-07-23T15:33:22;28.20;64.20
8792;DHT22;4432;50.890;4.744;2022-07-23T15:35:49;28.00;65.90
8792;DHT22;4432;50.890;4.744;2022-07-23T15:38:15;27.90;64.70
8792;DHT22;4432;50.890;4.744;2022-07-23T15:40:40;28.00;64.60
8792;DHT22;4432;50.890;4.744;2022-07-23T15:43:06;28.00;65.90
8792;DHT22;4432;50.890;4.744;2022-07-23T15:45:32;27.90;65.40
8792;DHT22;4432;50.890;4.744;2022-07-23T15:47:58;27.90;63.60
8792;DHT22;4432;50.890;4.744;2022-07-23T15:50:24;27.90;66.00
8792;DHT22;4432;50.890;4.744;2022-07-23T15:52:50;27.80;65.90
8792;DHT22;4432;50.890;4.744;2022-07-23T15:55:16;27.70;65.10
8792;DHT22;4432;50.890;4.744;2022-07-23T15:57:42;27.60;67.50
8792;DHT22;4432;50.890;4.744;2022-07-23T16:00:08;27.70;68.20
8792;DHT22;4432;50.890;4.744;2022-07-23T16:02:34;27.70;68.80
8792;DHT22;4432;50.890;4.744;2022-07-23T16:05:00;27.80;67.80
8792;DHT22;4432;50.890;4.744;2022-07-23T16:07:26;27.70;66.80
8792;DHT22;4432;50.890;4.744;2022-07-23T16:09:52;27.50;66.80
8792;DHT22;4432;50.890;4.744;2022-07-23T16:12:17;27.70;65.00
8792;DHT22;4432;50.890;4.744;2022-07-23T16:14:43;27.40;66.10
8792;DHT22;4432;50.890;4.744;2022-07-23T16:17:10;27.40;68.00
8792;DHT22;4432;50.890;4.744;2022-07-23T16:19:36;27.60;69.50
8792;DHT22;4432;50.890;4.744;2022-07-23T16:22:02;27.80;65.80
8792;DHT22;4432;50.890;4.744;2022-07-23T16:24:28;27.80;66.40
8792;DHT22;4432;50.890;4.744;2022-07-23T16:26:53;27.80;67.20
8792;DHT22;4432;50.890;4.744;2022-07-23T16:29:19;27.60;66.80
8792;DHT22;4432;50.890;4.744;2022-07-23T16:31:45;27.40;69.10
8792;DHT22;4432;50.890;4.744;2022-07-23T16:34:10;27.50;65.80
8792;DHT22;4432;50.890;4.744;2022-07-23T16:36:37;27.40;67.40
8792;DHT22;4432;50.890;4.744;2022-07-23T16:39:03;27.40;64.50
8792;DHT22;4432;50.890;4.744;2022-07-23T16:41:29;27.50;65.50
8792;DHT22;4432;50.890;4.744;2022-07-23T16:43:55;27.50;64.50
8792;DHT22;4432;50.890;4.744;2022-07-23T16:46:20;27.40;66.00
8792;DHT22;4432;50.890;4.744;2022-07-23T16:48:46;27.40;66.70
8792;DHT22;4432;50.890;4.744;2022-07-23T16:51:12;27.40;66.80